CFG3XL EDDF-LIRF
Flight info
| Callsign | CFG3XL |
|---|---|
| Flight time | N/A |
| Altitude | 37000 |
| Route | CINDY8S/18 CINDY Z74 LAMPU/N0441F350 DCT NOMBO/N0442F370 Y161 RIDAR DCT KONIN DCT BERAS DCT LIKDA DCT BAKOR DCT VESAL DCT VIC DCT KOPER DCT SUKOM DCT GAVRA DCT RITEB |
| Aircraft | A320/M-SDE3FGHIRWY/LB1 |
Departure
| Time | N/A |
|---|---|
| Airport | Frankfurt Main Airport (EDDF) |
Arrival
| Time | 2026-05-05 18:08 |
|---|---|
| Airport | Rome–Fiumicino Leonardo da Vinci International Airport (LIRF) |
| Time | Latitude | Longitude | Altitude | Speed | Heading |
|---|---|---|---|---|---|
| 2026-05-05 17:31 | 43.36541 | 11.95544 | 28729 ft | 394 kts | 174° |
| 2026-05-05 17:31 | 43.33107 | 11.96629 | 28106 ft | 390 kts | 174° |
| 2026-05-05 17:32 | 43.30467 | 11.97464 | 27676 ft | 388 kts | 173° |
| 2026-05-05 17:32 | 43.27848 | 11.98292 | 27236 ft | 385 kts | 173° |
| 2026-05-05 17:32 | 43.25249 | 11.99110 | 26792 ft | 382 kts | 173° |
| 2026-05-05 17:32 | 43.22667 | 11.99919 | 26344 ft | 379 kts | 173° |
| 2026-05-05 17:33 | 43.20104 | 12.00724 | 25907 ft | 377 kts | 173° |
| 2026-05-05 17:33 | 43.17590 | 12.01515 | 25478 ft | 374 kts | 173° |
| 2026-05-05 17:33 | 43.15058 | 12.02310 | 25041 ft | 372 kts | 172° |
| 2026-05-05 17:33 | 43.12547 | 12.03096 | 24582 ft | 369 kts | 172° |
| 2026-05-05 17:34 | 43.11724 | 12.03354 | 24435 ft | 365 kts | 171° |
| 2026-05-05 17:34 | 43.09330 | 12.04150 | 24216 ft | 350 kts | 172° |
| 2026-05-05 17:34 | 43.06929 | 12.04907 | 23427 ft | 356 kts | 172° |
| 2026-05-05 17:35 | 43.04524 | 12.05642 | 22889 ft | 351 kts | 172° |
| 2026-05-05 17:35 | 43.02158 | 12.06361 | 22418 ft | 346 kts | 172° |
| 2026-05-05 17:35 | 42.99821 | 12.07076 | 21932 ft | 342 kts | 172° |
| 2026-05-05 17:35 | 42.97513 | 12.07788 | 21462 ft | 339 kts | 172° |
| 2026-05-05 17:36 | 42.95215 | 12.08500 | 21021 ft | 338 kts | 172° |
| 2026-05-05 17:36 | 42.92931 | 12.09211 | 20639 ft | 336 kts | 171° |
| 2026-05-05 17:36 | 42.90654 | 12.09919 | 20245 ft | 334 kts | 172° |
| 2026-05-05 17:36 | 42.88392 | 12.10621 | 19875 ft | 332 kts | 172° |
| 2026-05-05 17:37 | 42.86174 | 12.11309 | 19519 ft | 330 kts | 172° |
| 2026-05-05 17:37 | 42.83596 | 12.12097 | 19118 ft | 328 kts | 172° |
| 2026-05-05 17:37 | 42.81375 | 12.12774 | 18780 ft | 326 kts | 171° |
| 2026-05-05 17:38 | 42.79171 | 12.13441 | 18466 ft | 323 kts | 173° |
| 2026-05-05 17:38 | 42.76979 | 12.14089 | 18001 ft | 322 kts | 171° |
| 2026-05-05 17:38 | 42.74806 | 12.14773 | 17509 ft | 320 kts | 171° |
| 2026-05-05 17:38 | 42.72642 | 12.15467 | 17030 ft | 319 kts | 171° |
| 2026-05-05 17:39 | 42.70482 | 12.16078 | 16567 ft | 314 kts | 179° |
| 2026-05-05 17:39 | 42.68338 | 12.16026 | 16124 ft | 305 kts | 193° |
| 2026-05-05 17:39 | 42.66252 | 12.15543 | 15660 ft | 303 kts | 193° |
| 2026-05-05 17:39 | 42.64180 | 12.15055 | 15191 ft | 302 kts | 194° |
| 2026-05-05 17:40 | 42.62813 | 12.14731 | 14898 ft | 301 kts | 194° |
| 2026-05-05 17:40 | 42.60063 | 12.14080 | 14328 ft | 298 kts | 194° |
| 2026-05-05 17:40 | 42.58025 | 12.13599 | 13896 ft | 297 kts | 194° |
| 2026-05-05 17:40 | 42.55999 | 12.13123 | 13401 ft | 295 kts | 194° |
| 2026-05-05 17:41 | 42.54661 | 12.12809 | 13079 ft | 294 kts | 194° |
| 2026-05-05 17:41 | 42.52652 | 12.12341 | 12670 ft | 292 kts | 193° |
| 2026-05-05 17:41 | 42.50660 | 12.11878 | 12298 ft | 289 kts | 193° |
| 2026-05-05 17:41 | 42.48681 | 12.11418 | 11919 ft | 288 kts | 193° |
| 2026-05-05 17:42 | 42.46077 | 12.10814 | 11413 ft | 285 kts | 193° |
| 2026-05-05 17:42 | 42.44127 | 12.10357 | 11085 ft | 285 kts | 193° |
| 2026-05-05 17:42 | 42.42812 | 12.10049 | 10838 ft | 283 kts | 193° |
| 2026-05-05 17:42 | 42.40875 | 12.09597 | 10479 ft | 281 kts | 193° |
| 2026-05-05 17:43 | 42.38937 | 12.09321 | 10140 ft | 282 kts | 180° |
| 2026-05-05 17:43 | 42.37020 | 12.09885 | 9791 ft | 283 kts | 167° |
| 2026-05-05 17:43 | 42.35161 | 12.10676 | 9474 ft | 278 kts | 166° |
| 2026-05-05 17:43 | 42.33332 | 12.11460 | 9159 ft | 273 kts | 166° |
| 2026-05-05 17:44 | 42.31554 | 12.12223 | 8865 ft | 269 kts | 166° |
| 2026-05-05 17:44 | 42.29781 | 12.12978 | 8571 ft | 265 kts | 166° |
| 2026-05-05 17:44 | 42.28034 | 12.13717 | 8307 ft | 261 kts | 166° |
| 2026-05-05 17:44 | 42.26317 | 12.14443 | 8029 ft | 256 kts | 166° |
| 2026-05-05 17:45 | 42.24629 | 12.15160 | 7755 ft | 252 kts | 166° |
| 2026-05-05 17:45 | 42.22975 | 12.15863 | 7481 ft | 247 kts | 166° |
| 2026-05-05 17:45 | 42.21353 | 12.16549 | 7210 ft | 242 kts | 166° |
| 2026-05-05 17:45 | 42.19756 | 12.17221 | 6948 ft | 240 kts | 165° |
| 2026-05-05 17:46 | 42.18172 | 12.17885 | 6693 ft | 237 kts | 165° |
| 2026-05-05 17:46 | 42.16604 | 12.18546 | 6422 ft | 235 kts | 165° |
| 2026-05-05 17:46 | 42.15022 | 12.19018 | 6143 ft | 231 kts | 180° |
| 2026-05-05 17:46 | 42.13444 | 12.18763 | 5851 ft | 227 kts | 194° |
| 2026-05-05 17:47 | 42.11902 | 12.18296 | 5521 ft | 227 kts | 193° |
| 2026-05-05 17:47 | 42.10365 | 12.17835 | 5208 ft | 226 kts | 193° |
| 2026-05-05 17:47 | 42.08916 | 12.17401 | 4912 ft | 224 kts | 193° |
| 2026-05-05 17:47 | 42.07472 | 12.16999 | 4617 ft | 224 kts | 187° |
| 2026-05-05 17:48 | 42.06067 | 12.17110 | 4355 ft | 222 kts | 167° |
| 2026-05-05 17:48 | 42.04601 | 12.17730 | 4039 ft | 220 kts | 164° |
| 2026-05-05 17:48 | 42.03144 | 12.18355 | 3724 ft | 219 kts | 164° |
| 2026-05-05 17:48 | 42.01700 | 12.18967 | 3512 ft | 218 kts | 165° |
| 2026-05-05 17:49 | 42.00247 | 12.19575 | 3266 ft | 217 kts | 164° |
| 2026-05-05 17:49 | 41.98816 | 12.20176 | 2985 ft | 214 kts | 164° |
| 2026-05-05 17:49 | 41.97405 | 12.20770 | 2703 ft | 211 kts | 164° |
| 2026-05-05 17:49 | 41.96026 | 12.21351 | 2423 ft | 203 kts | 164° |
| 2026-05-05 17:50 | 41.94746 | 12.21889 | 2164 ft | 188 kts | 164° |
| 2026-05-05 17:50 | 41.93539 | 12.22397 | 1930 ft | 171 kts | 164° |
| 2026-05-05 17:50 | 41.92472 | 12.22846 | 1695 ft | 155 kts | 164° |
| 2026-05-05 17:50 | 41.91467 | 12.23267 | 1514 ft | 150 kts | 163° |
| 2026-05-05 17:51 | 41.90515 | 12.23667 | 1311 ft | 138 kts | 163° |
| 2026-05-05 17:51 | 41.89618 | 12.24043 | 1125 ft | 133 kts | 163° |
| 2026-05-05 17:51 | 41.89319 | 12.24169 | 1059 ft | 134 kts | 165° |
| 2026-05-05 17:51 | 41.89016 | 12.24296 | 966 ft | 134 kts | 164° |
| 2026-05-05 17:52 | 41.86961 | 12.25159 | 561 ft | 134 kts | 163° |
| 2026-05-05 17:52 | 41.86076 | 12.25529 | 395 ft | 133 kts | 161° |
| 2026-05-05 17:52 | 41.85778 | 12.25654 | 321 ft | 133 kts | 161° |
| 2026-05-05 17:53 | 41.85200 | 12.25897 | 164 ft | 131 kts | 160° |
| 2026-05-05 17:53 | 41.84333 | 12.26267 | 40 ft | 128 kts | 160° |
| 2026-05-05 17:53 | 41.83571 | 12.26584 | 18 ft | 107 kts | 162° |
| 2026-05-05 17:53 | 41.82681 | 12.26956 | 218 ft | 150 kts | 161° |
| 2026-05-05 17:54 | 41.81666 | 12.27417 | 944 ft | 159 kts | 159° |
| 2026-05-05 17:54 | 41.80621 | 12.27879 | 1873 ft | 160 kts | 163° |
| 2026-05-05 17:54 | 41.79484 | 12.28365 | 2502 ft | 178 kts | 164° |
| 2026-05-05 17:54 | 41.78263 | 12.28883 | 2919 ft | 194 kts | 164° |
| 2026-05-05 17:55 | 41.76949 | 12.29565 | 3378 ft | 211 kts | 147° |
| 2026-05-05 17:55 | 41.75991 | 12.31092 | 3905 ft | 224 kts | 117° |
| 2026-05-05 17:55 | 41.75759 | 12.33156 | 3996 ft | 230 kts | 84° |
| 2026-05-05 17:55 | 41.76155 | 12.35253 | 4008 ft | 233 kts | 76° |
| 2026-05-05 17:56 | 41.76664 | 12.37304 | 4008 ft | 232 kts | 74° |
| 2026-05-05 17:56 | 41.77284 | 12.39304 | 4005 ft | 235 kts | 57° |
| 2026-05-05 17:56 | 41.78528 | 12.40717 | 4012 ft | 239 kts | 24° |
| 2026-05-05 17:56 | 41.80154 | 12.41053 | 4012 ft | 238 kts | 352° |
| 2026-05-05 17:57 | 41.81784 | 12.40638 | 4015 ft | 239 kts | 345° |
| 2026-05-05 17:57 | 41.83356 | 12.40119 | 4001 ft | 225 kts | 345° |
| 2026-05-05 17:57 | 41.84815 | 12.39610 | 4005 ft | 217 kts | 344° |
| 2026-05-05 17:57 | 41.86271 | 12.39104 | 4007 ft | 216 kts | 344° |
| 2026-05-05 17:58 | 41.87727 | 12.38606 | 4009 ft | 216 kts | 344° |
| 2026-05-05 17:58 | 41.89184 | 12.38109 | 4009 ft | 216 kts | 344° |
| 2026-05-05 17:58 | 41.90642 | 12.37614 | 4012 ft | 216 kts | 344° |
| 2026-05-05 17:58 | 41.92104 | 12.37120 | 4009 ft | 216 kts | 344° |
| 2026-05-05 17:59 | 41.93563 | 12.36627 | 3916 ft | 215 kts | 344° |
| 2026-05-05 17:59 | 41.94991 | 12.36138 | 3799 ft | 207 kts | 344° |
| 2026-05-05 17:59 | 41.96366 | 12.35664 | 3571 ft | 203 kts | 344° |
| 2026-05-05 17:59 | 41.97735 | 12.35192 | 3259 ft | 203 kts | 344° |
| 2026-05-05 18:00 | 41.99104 | 12.34725 | 2973 ft | 202 kts | 344° |
| 2026-05-05 18:00 | 42.00465 | 12.34253 | 2662 ft | 202 kts | 344° |
| 2026-05-05 18:00 | 42.01815 | 12.33759 | 2511 ft | 200 kts | 336° |
| 2026-05-05 18:00 | 42.02846 | 12.32604 | 2509 ft | 193 kts | 295° |
| 2026-05-05 18:01 | 42.03110 | 12.30908 | 2535 ft | 184 kts | 261° |
| 2026-05-05 18:01 | 42.02942 | 12.29200 | 2536 ft | 185 kts | 255° |
| 2026-05-05 18:01 | 42.02708 | 12.27515 | 2532 ft | 181 kts | 254° |
| 2026-05-05 18:01 | 42.02479 | 12.25900 | 2531 ft | 176 kts | 254° |
| 2026-05-05 18:02 | 42.02259 | 12.24301 | 2538 ft | 173 kts | 255° |
| 2026-05-05 18:02 | 42.02023 | 12.22697 | 2533 ft | 175 kts | 251° |
| 2026-05-05 18:02 | 42.01411 | 12.21377 | 2540 ft | 165 kts | 215° |
| 2026-05-05 18:02 | 42.00437 | 12.20607 | 2537 ft | 162 kts | 199° |
| 2026-05-05 18:03 | 41.99347 | 12.20284 | 2540 ft | 160 kts | 182° |
| 2026-05-05 18:03 | 41.98237 | 12.20426 | 2538 ft | 160 kts | 166° |
| 2026-05-05 18:03 | 41.97170 | 12.20869 | 2525 ft | 160 kts | 163° |
| 2026-05-05 18:03 | 41.96129 | 12.21307 | 2395 ft | 154 kts | 164° |
| 2026-05-05 18:04 | 41.95121 | 12.21731 | 2208 ft | 150 kts | 164° |
| 2026-05-05 18:04 | 41.94134 | 12.22146 | 2036 ft | 147 kts | 164° |
| 2026-05-05 18:04 | 41.93189 | 12.22544 | 1867 ft | 138 kts | 164° |
| 2026-05-05 18:04 | 41.92286 | 12.22922 | 1674 ft | 134 kts | 164° |
| 2026-05-05 18:05 | 41.91402 | 12.23294 | 1484 ft | 133 kts | 164° |
| 2026-05-05 18:05 | 41.90520 | 12.23664 | 1317 ft | 133 kts | 163° |
| 2026-05-05 18:05 | 41.89652 | 12.24029 | 1140 ft | 132 kts | 163° |
| 2026-05-05 18:05 | 41.88779 | 12.24392 | 941 ft | 131 kts | 164° |
| 2026-05-05 18:06 | 41.87903 | 12.24760 | 743 ft | 132 kts | 163° |
| 2026-05-05 18:06 | 41.87325 | 12.25006 | 635 ft | 132 kts | 163° |
| 2026-05-05 18:06 | 41.86145 | 12.25505 | 393 ft | 133 kts | 163° |
| 2026-05-05 18:06 | 41.85266 | 12.25872 | 227 ft | 132 kts | 161° |
| 2026-05-05 18:07 | 41.84385 | 12.26244 | 44 ft | 132 kts | 161° |
| 2026-05-05 18:07 | 41.83594 | 12.26571 | 16 ft | 103 kts | 162° |
| 2026-05-05 18:07 | 41.82995 | 12.26823 | 13 ft | 79 kts | 162° |
| 2026-05-05 18:07 | 41.82523 | 12.27021 | 11 ft | 64 kts | 162° |
| 2026-05-05 18:08 | 41.82139 | 12.27183 | 12 ft | 52 kts | 163° |
| 2026-05-05 18:08 | 41.81827 | 12.27310 | 15 ft | 42 kts | 163° |
| 2026-05-05 18:08 | 41.81603 | 12.27399 | 16 ft | 30 kts | 169° |
| 2026-05-05 18:08 | 41.81433 | 12.27406 | 13 ft | 20 kts | 208° |
| 2026-05-05 18:09 | 41.81351 | 12.27274 | 12 ft | 15 kts | 247° |
| 2026-05-05 18:09 | 41.81278 | 12.27225 | 12 ft | 13 kts | 182° |
| 2026-05-05 18:09 | 41.81188 | 12.27258 | 12 ft | 14 kts | 160° |
| 2026-05-05 18:09 | 41.81087 | 12.27297 | 12 ft | 16 kts | 163° |
| 2026-05-05 18:10 | 41.80978 | 12.27341 | 13 ft | 17 kts | 165° |
| 2026-05-05 18:10 | 41.80856 | 12.27339 | 12 ft | 19 kts | 188° |
| 2026-05-05 18:10 | 41.80723 | 12.27305 | 13 ft | 19 kts | 198° |
| 2026-05-05 18:10 | 41.80648 | 12.27192 | 12 ft | 15 kts | 250° |
| 2026-05-05 18:11 | 41.80611 | 12.27065 | 15 ft | 14 kts | 249° |
| 2026-05-05 18:11 | 41.80581 | 12.26955 | 14 ft | 12 kts | 247° |
| 2026-05-05 18:11 | 41.80554 | 12.26857 | 15 ft | 10 kts | 250° |
| 2026-05-05 18:11 | 41.80533 | 12.26775 | 14 ft | 8 kts | 250° |
| 2026-05-05 18:12 | 41.80514 | 12.26710 | 16 ft | 7 kts | 248° |
| 2026-05-05 18:12 | 41.80497 | 12.26648 | 16 ft | 8 kts | 251° |
| 2026-05-05 18:12 | 41.80477 | 12.26575 | 15 ft | 10 kts | 250° |
| 2026-05-05 18:12 | 41.80445 | 12.26461 | 16 ft | 16 kts | 249° |
| 2026-05-05 18:13 | 41.80358 | 12.26366 | 14 ft | 18 kts | 166° |
| 2026-05-05 18:13 | 41.80340 | 12.26374 | 15 ft | 18 kts | 161° |
| 2026-05-05 18:13 | 41.80226 | 12.26411 | 14 ft | 15 kts | 191° |
| 2026-05-05 18:14 | 41.80154 | 12.26431 | 16 ft | 10 kts | 158° |
| 2026-05-05 18:14 | 41.80087 | 12.26463 | 15 ft | 2 kts | 161° |
| 2026-05-05 18:14 | 41.80082 | 12.26465 | 14 ft | 0 kts | 161° |
| 2026-05-05 18:15 | 41.80078 | 12.26460 | 14 ft | 1 kts | 217° |
| 2026-05-05 18:15 | 41.80082 | 12.26448 | 15 ft | 2 kts | 301° |
| 2026-05-05 18:15 | 41.80119 | 12.26440 | 14 ft | 10 kts | 342° |
| 2026-05-05 18:15 | 41.80114 | 12.26348 | 14 ft | 15 kts | 218° |
| 2026-05-05 18:16 | 41.80014 | 12.26282 | 14 ft | 17 kts | 204° |
| 2026-05-05 18:16 | 41.79904 | 12.26214 | 15 ft | 17 kts | 205° |
| 2026-05-05 18:16 | 41.79793 | 12.26147 | 14 ft | 16 kts | 202° |
| 2026-05-05 18:16 | 41.79687 | 12.26141 | 14 ft | 16 kts | 198° |
| 2026-05-05 18:17 | 41.79597 | 12.26087 | 15 ft | 6 kts | 196° |
| 2026-05-05 18:17 | 41.79575 | 12.26105 | 14 ft | 0 kts | 128° |
| 2026-05-05 18:17 | 41.79571 | 12.26113 | 14 ft | 4 kts | 126° |
| 2026-05-05 18:17 | 41.79556 | 12.26152 | 15 ft | 3 kts | 116° |
| 2026-05-05 18:18 | 41.79553 | 12.26160 | 14 ft | 0 kts | 116° |